sensor_id;sensor_type;location;lat;lon;timestamp;P1;durP1;ratioP1;P2;durP2;ratioP2
3979;SDS011;2004;52.452;13.120;2023-09-12T00:07:13;178.87;;;22.73;;
3979;SDS011;2004;52.452;13.120;2023-09-12T00:15:04;182.37;;;23.43;;
3979;SDS011;2004;52.452;13.120;2023-09-12T00:22:55;182.27;;;23.73;;
3979;SDS011;2004;52.452;13.120;2023-09-12T00:30:46;184.50;;;23.60;;
3979;SDS011;2004;52.452;13.120;2023-09-12T00:38:37;185.87;;;23.83;;
3979;SDS011;2004;52.452;13.120;2023-09-12T00:46:27;179.83;;;22.23;;
3979;SDS011;2004;52.452;13.120;2023-09-12T00:54:19;176.57;;;21.20;;
3979;SDS011;2004;52.452;13.120;2023-09-12T01:02:10;181.23;;;23.10;;
3979;SDS011;2004;52.452;13.120;2023-09-12T01:10:00;180.90;;;22.20;;
3979;SDS011;2004;52.452;13.120;2023-09-12T01:17:52;177.70;;;22.67;;
3979;SDS011;2004;52.452;13.120;2023-09-12T01:33:55;180.13;;;23.17;;
3979;SDS011;2004;52.452;13.120;2023-09-12T01:41:47;179.53;;;22.40;;
3979;SDS011;2004;52.452;13.120;2023-09-12T01:49:39;179.83;;;22.43;;
3979;SDS011;2004;52.452;13.120;2023-09-12T01:57:32;179.40;;;21.43;;
3979;SDS011;2004;52.452;13.120;2023-09-12T02:05:23;186.53;;;22.60;;
3979;SDS011;2004;52.452;13.120;2023-09-12T02:13:14;179.40;;;21.63;;
3979;SDS011;2004;52.452;13.120;2023-09-12T02:21:04;176.90;;;21.90;;
3979;SDS011;2004;52.452;13.120;2023-09-12T02:28:55;179.93;;;21.90;;
3979;SDS011;2004;52.452;13.120;2023-09-12T02:36:46;188.37;;;22.30;;
3979;SDS011;2004;52.452;13.120;2023-09-12T02:44:36;179.53;;;21.83;;
3979;SDS011;2004;52.452;13.120;2023-09-12T02:52:27;177.70;;;21.60;;
3979;SDS011;2004;52.452;13.120;2023-09-12T03:00:17;178.57;;;21.73;;
3979;SDS011;2004;52.452;13.120;2023-09-12T03:08:09;182.47;;;23.53;;
3979;SDS011;2004;52.452;13.120;2023-09-12T03:16:00;177.30;;;21.57;;
3979;SDS011;2004;52.452;13.120;2023-09-12T03:23:51;184.40;;;23.20;;
3979;SDS011;2004;52.452;13.120;2023-09-12T03:31:42;181.47;;;21.90;;
3979;SDS011;2004;52.452;13.120;2023-09-12T03:39:32;182.97;;;23.37;;
3979;SDS011;2004;52.452;13.120;2023-09-12T03:47:23;181.33;;;22.93;;
3979;SDS011;2004;52.452;13.120;2023-09-12T03:55:13;182.60;;;21.97;;
3979;SDS011;2004;52.452;13.120;2023-09-12T04:03:04;181.80;;;22.83;;
3979;SDS011;2004;52.452;13.120;2023-09-12T04:10:55;184.63;;;21.80;;
3979;SDS011;2004;52.452;13.120;2023-09-12T04:18:45;182.53;;;21.60;;
3979;SDS011;2004;52.452;13.120;2023-09-12T04:26:36;182.37;;;22.77;;
3979;SDS011;2004;52.452;13.120;2023-09-12T04:34:27;185.40;;;22.13;;
3979;SDS011;2004;52.452;13.120;2023-09-12T04:42:17;186.20;;;21.53;;
3979;SDS011;2004;52.452;13.120;2023-09-12T04:50:08;179.77;;;22.17;;
3979;SDS011;2004;52.452;13.120;2023-09-12T04:57:59;183.87;;;23.30;;
3979;SDS011;2004;52.452;13.120;2023-09-12T05:05:51;185.97;;;23.07;;
3979;SDS011;2004;52.452;13.120;2023-09-12T05:13:42;189.27;;;23.77;;
3979;SDS011;2004;52.452;13.120;2023-09-12T05:21:33;185.70;;;22.40;;
3979;SDS011;2004;52.452;13.120;2023-09-12T05:29:23;187.47;;;25.60;;
3979;SDS011;2004;52.452;13.120;2023-09-12T05:37:14;181.07;;;23.00;;
3979;SDS011;2004;52.452;13.120;2023-09-12T05:45:05;185.27;;;25.67;;
3979;SDS011;2004;52.452;13.120;2023-09-12T05:52:57;186.63;;;24.27;;
3979;SDS011;2004;52.452;13.120;2023-09-12T06:00:47;182.80;;;23.00;;
3979;SDS011;2004;52.452;13.120;2023-09-12T06:08:38;184.47;;;22.73;;
3979;SDS011;2004;52.452;13.120;2023-09-12T06:16:28;182.17;;;21.50;;
3979;SDS011;2004;52.452;13.120;2023-09-12T06:24:20;185.47;;;23.60;;
3979;SDS011;2004;52.452;13.120;2023-09-12T06:32:14;189.03;;;24.97;;
3979;SDS011;2004;52.452;13.120;2023-09-12T06:40:06;190.07;;;21.00;;
3979;SDS011;2004;52.452;13.120;2023-09-12T06:47:57;180.83;;;19.30;;
3979;SDS011;2004;52.452;13.120;2023-09-12T06:55:48;177.60;;;17.73;;
3979;SDS011;2004;52.452;13.120;2023-09-12T07:03:38;181.57;;;17.50;;
3979;SDS011;2004;52.452;13.120;2023-09-12T07:11:29;186.33;;;15.47;;
3979;SDS011;2004;52.452;13.120;2023-09-12T07:19:20;175.37;;;16.80;;
3979;SDS011;2004;52.452;13.120;2023-09-12T07:27:11;181.97;;;16.33;;
3979;SDS011;2004;52.452;13.120;2023-09-12T07:35:01;179.70;;;16.37;;
3979;SDS011;2004;52.452;13.120;2023-09-12T07:42:54;175.20;;;15.97;;
3979;SDS011;2004;52.452;13.120;2023-09-12T07:50:45;174.77;;;16.13;;
3979;SDS011;2004;52.452;13.120;2023-09-12T07:58:35;176.53;;;14.80;;
3979;SDS011;2004;52.452;13.120;2023-09-12T08:06:26;182.60;;;14.97;;
3979;SDS011;2004;52.452;13.120;2023-09-12T08:14:17;185.63;;;15.60;;
3979;SDS011;2004;52.452;13.120;2023-09-12T08:22:10;174.20;;;14.27;;
3979;SDS011;2004;52.452;13.120;2023-09-12T08:30:01;180.50;;;15.00;;
3979;SDS011;2004;52.452;13.120;2023-09-12T08:37:54;180.80;;;14.40;;
3979;SDS011;2004;52.452;13.120;2023-09-12T08:45:45;176.23;;;15.63;;
3979;SDS011;2004;52.452;13.120;2023-09-12T08:53:36;187.70;;;16.80;;
3979;SDS011;2004;52.452;13.120;2023-09-12T09:01:27;181.43;;;16.77;;
3979;SDS011;2004;52.452;13.120;2023-09-12T09:09:20;188.33;;;18.20;;
3979;SDS011;2004;52.452;13.120;2023-09-12T09:17:12;183.87;;;17.07;;
3979;SDS011;2004;52.452;13.120;2023-09-12T09:25:12;180.20;;;17.10;;
3979;SDS011;2004;52.452;13.120;2023-09-12T09:33:02;182.33;;;16.17;;
3979;SDS011;2004;52.452;13.120;2023-09-12T09:40:53;187.60;;;16.80;;
3979;SDS011;2004;52.452;13.120;2023-09-12T09:48:50;180.00;;;18.37;;
3979;SDS011;2004;52.452;13.120;2023-09-12T09:56:45;182.37;;;15.70;;
3979;SDS011;2004;52.452;13.120;2023-09-12T10:04:37;174.50;;;15.80;;
3979;SDS011;2004;52.452;13.120;2023-09-12T10:12:29;181.20;;;16.00;;
3979;SDS011;2004;52.452;13.120;2023-09-12T10:20:25;168.60;;;15.17;;
3979;SDS011;2004;52.452;13.120;2023-09-12T10:28:23;171.47;;;14.70;;
3979;SDS011;2004;52.452;13.120;2023-09-12T10:36:17;168.33;;;13.77;;
3979;SDS011;2004;52.452;13.120;2023-09-12T10:44:10;167.13;;;11.83;;
3979;SDS011;2004;52.452;13.120;2023-09-12T10:52:05;159.63;;;11.27;;
3979;SDS011;2004;52.452;13.120;2023-09-12T11:07:49;167.10;;;11.90;;
3979;SDS011;2004;52.452;13.120;2023-09-12T11:15:40;168.50;;;12.70;;
3979;SDS011;2004;52.452;13.120;2023-09-12T11:24:00;163.73;;;12.67;;
3979;SDS011;2004;52.452;13.120;2023-09-12T11:31:52;162.57;;;11.80;;
3979;SDS011;2004;52.452;13.120;2023-09-12T11:39:47;161.47;;;12.17;;
3979;SDS011;2004;52.452;13.120;2023-09-12T11:47:40;164.67;;;12.37;;
3979;SDS011;2004;52.452;13.120;2023-09-12T11:55:32;158.87;;;10.77;;
3979;SDS011;2004;52.452;13.120;2023-09-12T12:03:36;161.37;;;12.30;;
3979;SDS011;2004;52.452;13.120;2023-09-12T12:11:28;164.17;;;12.07;;
3979;SDS011;2004;52.452;13.120;2023-09-12T12:19:18;161.67;;;12.27;;
3979;SDS011;2004;52.452;13.120;2023-09-12T12:27:09;178.63;;;16.87;;
3979;SDS011;2004;52.452;13.120;2023-09-12T12:35:01;171.13;;;12.40;;
3979;SDS011;2004;52.452;13.120;2023-09-12T12:42:52;165.37;;;13.60;;
3979;SDS011;2004;52.452;13.120;2023-09-12T12:50:43;163.67;;;12.97;;
3979;SDS011;2004;52.452;13.120;2023-09-12T12:58:33;162.67;;;11.17;;
3979;SDS011;2004;52.452;13.120;2023-09-12T13:06:25;159.87;;;11.00;;
3979;SDS011;2004;52.452;13.120;2023-09-12T13:14:17;159.60;;;12.20;;
3979;SDS011;2004;52.452;13.120;2023-09-12T13:22:09;170.60;;;13.03;;
3979;SDS011;2004;52.452;13.120;2023-09-12T13:30:00;168.40;;;11.97;;
3979;SDS011;2004;52.452;13.120;2023-09-12T13:37:50;160.07;;;11.17;;
3979;SDS011;2004;52.452;13.120;2023-09-12T13:45:41;166.67;;;11.23;;
3979;SDS011;2004;52.452;13.120;2023-09-12T13:53:31;161.17;;;12.67;;
3979;SDS011;2004;52.452;13.120;2023-09-12T14:01:22;164.10;;;11.90;;
3979;SDS011;2004;52.452;13.120;2023-09-12T14:09:13;161.07;;;10.43;;
3979;SDS011;2004;52.452;13.120;2023-09-12T14:17:05;167.47;;;11.83;;
3979;SDS011;2004;52.452;13.120;2023-09-12T14:24:56;158.17;;;11.20;;
3979;SDS011;2004;52.452;13.120;2023-09-12T14:32:46;157.00;;;10.17;;
3979;SDS011;2004;52.452;13.120;2023-09-12T14:40:37;155.90;;;9.33;;
3979;SDS011;2004;52.452;13.120;2023-09-12T14:48:28;153.87;;;9.37;;
3979;SDS011;2004;52.452;13.120;2023-09-12T14:56:20;163.50;;;9.83;;
3979;SDS011;2004;52.452;13.120;2023-09-12T15:04:13;158.67;;;9.17;;
3979;SDS011;2004;52.452;13.120;2023-09-12T15:12:04;154.97;;;9.47;;
3979;SDS011;2004;52.452;13.120;2023-09-12T15:19:54;155.87;;;10.17;;
3979;SDS011;2004;52.452;13.120;2023-09-12T15:27:45;154.90;;;9.17;;
3979;SDS011;2004;52.452;13.120;2023-09-12T15:35:36;161.23;;;9.77;;
3979;SDS011;2004;52.452;13.120;2023-09-12T15:43:26;152.47;;;7.90;;
3979;SDS011;2004;52.452;13.120;2023-09-12T15:51:17;157.83;;;8.77;;
3979;SDS011;2004;52.452;13.120;2023-09-12T15:59:07;154.23;;;8.17;;
3979;SDS011;2004;52.452;13.120;2023-09-12T16:06:58;156.60;;;8.80;;
3979;SDS011;2004;52.452;13.120;2023-09-12T16:14:50;155.93;;;8.53;;
3979;SDS011;2004;52.452;13.120;2023-09-12T16:22:44;155.90;;;9.67;;
3979;SDS011;2004;52.452;13.120;2023-09-12T16:30:35;153.40;;;8.33;;
3979;SDS011;2004;52.452;13.120;2023-09-12T16:38:26;156.50;;;8.60;;
3979;SDS011;2004;52.452;13.120;2023-09-12T16:46:17;153.57;;;8.47;;
3979;SDS011;2004;52.452;13.120;2023-09-12T16:54:08;155.47;;;9.37;;
3979;SDS011;2004;52.452;13.120;2023-09-12T17:01:58;155.17;;;10.23;;
3979;SDS011;2004;52.452;13.120;2023-09-12T17:09:49;159.37;;;9.00;;
3979;SDS011;2004;52.452;13.120;2023-09-12T17:17:39;166.43;;;9.40;;
3979;SDS011;2004;52.452;13.120;2023-09-12T17:25:29;158.90;;;8.40;;
3979;SDS011;2004;52.452;13.120;2023-09-12T17:33:21;157.57;;;9.70;;
3979;SDS011;2004;52.452;13.120;2023-09-12T17:41:11;154.60;;;8.10;;
3979;SDS011;2004;52.452;13.120;2023-09-12T17:49:02;157.53;;;8.40;;
3979;SDS011;2004;52.452;13.120;2023-09-12T17:56:52;157.20;;;9.00;;
3979;SDS011;2004;52.452;13.120;2023-09-12T18:04:43;159.50;;;8.57;;
3979;SDS011;2004;52.452;13.120;2023-09-12T18:12:33;156.07;;;9.27;;
3979;SDS011;2004;52.452;13.120;2023-09-12T18:20:24;157.63;;;9.37;;
3979;SDS011;2004;52.452;13.120;2023-09-12T18:36:27;160.40;;;11.00;;
3979;SDS011;2004;52.452;13.120;2023-09-12T18:44:17;159.80;;;10.97;;
3979;SDS011;2004;52.452;13.120;2023-09-12T18:52:09;159.47;;;10.77;;
3979;SDS011;2004;52.452;13.120;2023-09-12T19:00:00;166.70;;;10.90;;
3979;SDS011;2004;52.452;13.120;2023-09-12T19:07:50;156.77;;;10.20;;
3979;SDS011;2004;52.452;13.120;2023-09-12T19:15:41;163.80;;;11.50;;
3979;SDS011;2004;52.452;13.120;2023-09-12T19:23:33;162.77;;;11.20;;
3979;SDS011;2004;52.452;13.120;2023-09-12T19:31:24;172.20;;;10.60;;
3979;SDS011;2004;52.452;13.120;2023-09-12T19:39:14;164.70;;;11.20;;
3979;SDS011;2004;52.452;13.120;2023-09-12T19:47:05;162.87;;;11.47;;
3979;SDS011;2004;52.452;13.120;2023-09-12T19:54:55;163.23;;;11.27;;
3979;SDS011;2004;52.452;13.120;2023-09-12T20:02:46;163.57;;;13.00;;
3979;SDS011;2004;52.452;13.120;2023-09-12T20:10:38;162.27;;;11.53;;
3979;SDS011;2004;52.452;13.120;2023-09-12T20:18:29;162.60;;;12.30;;
3979;SDS011;2004;52.452;13.120;2023-09-12T20:26:20;168.87;;;13.50;;
3979;SDS011;2004;52.452;13.120;2023-09-12T20:34:10;168.40;;;12.03;;
3979;SDS011;2004;52.452;13.120;2023-09-12T20:42:01;167.07;;;14.63;;
3979;SDS011;2004;52.452;13.120;2023-09-12T20:49:52;168.93;;;14.20;;
3979;SDS011;2004;52.452;13.120;2023-09-12T20:57:46;164.60;;;13.43;;
3979;SDS011;2004;52.452;13.120;2023-09-12T21:05:36;164.00;;;12.27;;
3979;SDS011;2004;52.452;13.120;2023-09-12T21:13:27;162.60;;;12.53;;
3979;SDS011;2004;52.452;13.120;2023-09-12T21:21:18;161.10;;;11.80;;
3979;SDS011;2004;52.452;13.120;2023-09-12T21:29:08;160.87;;;11.50;;
3979;SDS011;2004;52.452;13.120;2023-09-12T21:36:59;164.93;;;12.43;;
3979;SDS011;2004;52.452;13.120;2023-09-12T21:44:50;165.43;;;13.73;;
3979;SDS011;2004;52.452;13.120;2023-09-12T21:52:42;168.00;;;13.00;;
3979;SDS011;2004;52.452;13.120;2023-09-12T22:00:32;163.13;;;12.33;;
3979;SDS011;2004;52.452;13.120;2023-09-12T22:08:24;165.57;;;13.10;;
3979;SDS011;2004;52.452;13.120;2023-09-12T22:16:15;161.00;;;11.90;;
3979;SDS011;2004;52.452;13.120;2023-09-12T22:24:06;164.20;;;12.10;;
3979;SDS011;2004;52.452;13.120;2023-09-12T22:31:56;164.67;;;12.60;;
3979;SDS011;2004;52.452;13.120;2023-09-12T22:39:47;169.30;;;12.47;;
3979;SDS011;2004;52.452;13.120;2023-09-12T22:47:40;162.57;;;12.47;;
3979;SDS011;2004;52.452;13.120;2023-09-12T22:55:30;165.90;;;12.03;;
3979;SDS011;2004;52.452;13.120;2023-09-12T23:03:21;168.60;;;12.30;;
3979;SDS011;2004;52.452;13.120;2023-09-12T23:11:12;164.47;;;11.73;;
3979;SDS011;2004;52.452;13.120;2023-09-12T23:19:02;166.70;;;12.67;;
3979;SDS011;2004;52.452;13.120;2023-09-12T23:26:55;170.50;;;13.97;;
3979;SDS011;2004;52.452;13.120;2023-09-12T23:34:45;165.80;;;13.10;;
3979;SDS011;2004;52.452;13.120;2023-09-12T23:42:36;166.13;;;13.40;;
3979;SDS011;2004;52.452;13.120;2023-09-12T23:50:27;166.30;;;14.93;;
3979;SDS011;2004;52.452;13.120;2023-09-12T23:58:20;170.47;;;14.03;;
